sensor_id;sensor_type;location;lat;lon;timestamp;pressure;altitude;pressure_sealevel;temperature;humidity
19023;BME280;35226;48.606;8.858;2023-05-19T00:01:46;96715.50;;;11.08;100.00
19023;BME280;35226;48.606;8.858;2023-05-19T00:04:17;96709.97;;;11.08;100.00
19023;BME280;35226;48.606;8.858;2023-05-19T00:06:43;96709.66;;;11.06;100.00
19023;BME280;35226;48.606;8.858;2023-05-19T00:09:15;96708.53;;;11.04;100.00
19023;BME280;35226;48.606;8.858;2023-05-19T00:11:41;96705.00;;;11.03;100.00
19023;BME280;35226;48.606;8.858;2023-05-19T00:14:08;96703.44;;;11.02;100.00
19023;BME280;35226;48.606;8.858;2023-05-19T00:16:34;96705.34;;;11.05;100.00
19023;BME280;35226;48.606;8.858;2023-05-19T00:19:01;96699.56;;;11.00;100.00
19023;BME280;35226;48.606;8.858;2023-05-19T00:21:28;96701.53;;;10.99;100.00
19023;BME280;35226;48.606;8.858;2023-05-19T00:23:54;96705.28;;;10.93;100.00
19023;BME280;35226;48.606;8.858;2023-05-19T00:26:20;96704.84;;;10.94;100.00
19023;BME280;35226;48.606;8.858;2023-05-19T00:28:54;96704.59;;;10.89;100.00
19023;BME280;35226;48.606;8.858;2023-05-19T00:31:20;96706.13;;;10.90;100.00
19023;BME280;35226;48.606;8.858;2023-05-19T00:33:45;96708.56;;;10.88;100.00
19023;BME280;35226;48.606;8.858;2023-05-19T00:36:11;96705.78;;;10.88;100.00
19023;BME280;35226;48.606;8.858;2023-05-19T00:38:37;96704.69;;;10.85;100.00
19023;BME280;35226;48.606;8.858;2023-05-19T00:41:04;96706.75;;;10.81;100.00
19023;BME280;35226;48.606;8.858;2023-05-19T00:43:30;96695.78;;;10.77;100.00
19023;BME280;35226;48.606;8.858;2023-05-19T00:45:58;96705.50;;;10.69;100.00
19023;BME280;35226;48.606;8.858;2023-05-19T00:48:25;96696.19;;;10.63;100.00
19023;BME280;35226;48.606;8.858;2023-05-19T00:50:52;96696.69;;;10.58;100.00
19023;BME280;35226;48.606;8.858;2023-05-19T00:53:19;96692.72;;;10.59;100.00
19023;BME280;35226;48.606;8.858;2023-05-19T00:55:46;96696.03;;;10.54;100.00
19023;BME280;35226;48.606;8.858;2023-05-19T00:58:12;96689.38;;;10.52;100.00
19023;BME280;35226;48.606;8.858;2023-05-19T01:00:38;96699.28;;;10.49;100.00
19023;BME280;35226;48.606;8.858;2023-05-19T01:03:07;96694.22;;;10.48;100.00
19023;BME280;35226;48.606;8.858;2023-05-19T01:05:39;96697.69;;;10.35;100.00
19023;BME280;35226;48.606;8.858;2023-05-19T01:08:12;96693.78;;;10.33;100.00
19023;BME280;35226;48.606;8.858;2023-05-19T01:10:37;96693.00;;;10.32;100.00
19023;BME280;35226;48.606;8.858;2023-05-19T01:13:04;96697.41;;;10.30;100.00
19023;BME280;35226;48.606;8.858;2023-05-19T01:15:32;96694.03;;;10.22;100.00
19023;BME280;35226;48.606;8.858;2023-05-19T01:18:13;96694.47;;;10.21;100.00
19023;BME280;35226;48.606;8.858;2023-05-19T01:20:44;96696.53;;;10.17;100.00
19023;BME280;35226;48.606;8.858;2023-05-19T01:26:08;96705.06;;;10.06;100.00
19023;BME280;35226;48.606;8.858;2023-05-19T01:31:20;96697.63;;;10.03;100.00
19023;BME280;35226;48.606;8.858;2023-05-19T01:33:49;96704.34;;;10.02;100.00
19023;BME280;35226;48.606;8.858;2023-05-19T01:36:16;96695.66;;;10.03;100.00
19023;BME280;35226;48.606;8.858;2023-05-19T01:38:45;96696.66;;;9.93;100.00
19023;BME280;35226;48.606;8.858;2023-05-19T01:41:11;96701.25;;;10.00;100.00
19023;BME280;35226;48.606;8.858;2023-05-19T01:43:37;96695.72;;;10.00;100.00
19023;BME280;35226;48.606;8.858;2023-05-19T01:46:04;96695.72;;;10.00;100.00
19023;BME280;35226;48.606;8.858;2023-05-19T01:48:31;96692.63;;;9.98;100.00
19023;BME280;35226;48.606;8.858;2023-05-19T01:50:58;96699.34;;;9.97;100.00
19023;BME280;35226;48.606;8.858;2023-05-19T02:01:15;96690.44;;;9.89;100.00
19023;BME280;35226;48.606;8.858;2023-05-19T02:04:08;96696.75;;;9.90;100.00
19023;BME280;35226;48.606;8.858;2023-05-19T02:07:00;96691.31;;;9.86;100.00
19023;BME280;35226;48.606;8.858;2023-05-19T02:12:31;96682.25;;;9.86;100.00
19023;BME280;35226;48.606;8.858;2023-05-19T02:15:04;96690.97;;;9.84;100.00
19023;BME280;35226;48.606;8.858;2023-05-19T02:17:34;96691.03;;;9.81;100.00
19023;BME280;35226;48.606;8.858;2023-05-19T02:20:01;96694.56;;;9.81;100.00
19023;BME280;35226;48.606;8.858;2023-05-19T02:22:30;96693.03;;;9.80;100.00
19023;BME280;35226;48.606;8.858;2023-05-19T02:24:55;96695.53;;;9.75;100.00
19023;BME280;35226;48.606;8.858;2023-05-19T02:27:21;96693.25;;;9.70;100.00
19023;BME280;35226;48.606;8.858;2023-05-19T02:29:47;96705.06;;;9.70;100.00
19023;BME280;35226;48.606;8.858;2023-05-19T02:32:13;96698.03;;;9.69;100.00
19023;BME280;35226;48.606;8.858;2023-05-19T02:34:39;96694.47;;;9.69;100.00
19023;BME280;35226;48.606;8.858;2023-05-19T02:37:06;96693.00;;;9.64;100.00
19023;BME280;35226;48.606;8.858;2023-05-19T02:39:32;96691.84;;;9.61;100.00
19023;BME280;35226;48.606;8.858;2023-05-19T02:42:00;96681.69;;;9.58;100.00
19023;BME280;35226;48.606;8.858;2023-05-19T02:44:25;96685.72;;;9.54;100.00
19023;BME280;35226;48.606;8.858;2023-05-19T02:46:51;96685.72;;;9.54;100.00
19023;BME280;35226;48.606;8.858;2023-05-19T02:49:17;96685.56;;;9.61;100.00
19023;BME280;35226;48.606;8.858;2023-05-19T02:51:42;96679.72;;;9.59;100.00
19023;BME280;35226;48.606;8.858;2023-05-19T02:54:08;96681.59;;;9.62;100.00
19023;BME280;35226;48.606;8.858;2023-05-19T02:56:33;96674.97;;;9.59;100.00
19023;BME280;35226;48.606;8.858;2023-05-19T02:58:59;96678.50;;;9.60;100.00
19023;BME280;35226;48.606;8.858;2023-05-19T03:01:25;96684.88;;;9.57;100.00
19023;BME280;35226;48.606;8.858;2023-05-19T03:03:50;96679.38;;;9.57;100.00
19023;BME280;35226;48.606;8.858;2023-05-19T03:06:16;96677.09;;;9.52;100.00
19023;BME280;35226;48.606;8.858;2023-05-19T03:08:42;96682.28;;;9.50;100.00
19023;BME280;35226;48.606;8.858;2023-05-19T03:11:08;96674.44;;;9.48;100.00
19023;BME280;35226;48.606;8.858;2023-05-19T03:13:33;96669.97;;;9.71;100.00
19023;BME280;35226;48.606;8.858;2023-05-19T03:15:59;96676.63;;;9.73;100.00
19023;BME280;35226;48.606;8.858;2023-05-19T03:18:26;96672.25;;;9.76;100.00
19023;BME280;35226;48.606;8.858;2023-05-19T03:20:52;96680.47;;;9.79;100.00
19023;BME280;35226;48.606;8.858;2023-05-19T03:23:21;96670.63;;;9.78;100.00
19023;BME280;35226;48.606;8.858;2023-05-19T03:25:46;96677.59;;;9.83;100.00
19023;BME280;35226;48.606;8.858;2023-05-19T03:28:12;96680.34;;;9.83;100.00
19023;BME280;35226;48.606;8.858;2023-05-19T03:30:37;96677.41;;;9.74;100.00
19023;BME280;35226;48.606;8.858;2023-05-19T03:33:09;96678.97;;;9.75;100.00
19023;BME280;35226;48.606;8.858;2023-05-19T03:35:35;96678.19;;;9.74;100.00
19023;BME280;35226;48.606;8.858;2023-05-19T03:38:00;96683.00;;;9.70;100.00
19023;BME280;35226;48.606;8.858;2023-05-19T03:40:26;96677.06;;;9.72;100.00
19023;BME280;35226;48.606;8.858;2023-05-19T03:42:58;96685.06;;;9.66;100.00
19023;BME280;35226;48.606;8.858;2023-05-19T03:45:25;96688.63;;;9.67;100.00
19023;BME280;35226;48.606;8.858;2023-05-19T03:47:51;96688.50;;;9.70;100.00
19023;BME280;35226;48.606;8.858;2023-05-19T03:50:35;96686.69;;;9.63;100.00
19023;BME280;35226;48.606;8.858;2023-05-19T03:53:15;96684.66;;;9.68;100.00
19023;BME280;35226;48.606;8.858;2023-05-19T03:55:41;96686.63;;;9.67;100.00
19023;BME280;35226;48.606;8.858;2023-05-19T03:58:08;96689.75;;;9.69;100.00
19023;BME280;35226;48.606;8.858;2023-05-19T04:00:35;96693.25;;;9.70;100.00
19023;BME280;35226;48.606;8.858;2023-05-19T04:03:01;96694.13;;;9.67;100.00
19023;BME280;35226;48.606;8.858;2023-05-19T04:05:27;96679.91;;;9.68;100.00
19023;BME280;35226;48.606;8.858;2023-05-19T04:07:52;96686.13;;;9.72;100.00
19023;BME280;35226;48.606;8.858;2023-05-19T04:10:17;96682.22;;;9.70;100.00
19023;BME280;35226;48.606;8.858;2023-05-19T04:12:43;96680.25;;;9.70;100.00
19023;BME280;35226;48.606;8.858;2023-05-19T04:15:09;96683.72;;;9.74;100.00
19023;BME280;35226;48.606;8.858;2023-05-19T04:17:36;96691.63;;;9.72;100.00
19023;BME280;35226;48.606;8.858;2023-05-19T04:20:02;96691.28;;;9.70;100.00
19023;BME280;35226;48.606;8.858;2023-05-19T04:22:29;96679.38;;;9.73;100.00
19023;BME280;35226;48.606;8.858;2023-05-19T04:24:54;96692.06;;;9.71;100.00
19023;BME280;35226;48.606;8.858;2023-05-19T04:27:20;96679.38;;;9.73;100.00
19023;BME280;35226;48.606;8.858;2023-05-19T04:29:46;96680.88;;;9.78;100.00
19023;BME280;35226;48.606;8.858;2023-05-19T04:32:12;96682.75;;;9.81;100.00
19023;BME280;35226;48.606;8.858;2023-05-19T04:34:42;96676.47;;;9.80;100.00
19023;BME280;35226;48.606;8.858;2023-05-19T04:37:11;96683.47;;;9.85;100.00
19023;BME280;35226;48.606;8.858;2023-05-19T04:39:39;96686.66;;;9.83;100.00
19023;BME280;35226;48.606;8.858;2023-05-19T04:42:08;96681.56;;;9.82;100.00
19023;BME280;35226;48.606;8.858;2023-05-19T04:44:35;96685.09;;;9.82;100.00
19023;BME280;35226;48.606;8.858;2023-05-19T04:47:03;96689.06;;;9.81;100.00
19023;BME280;35226;48.606;8.858;2023-05-19T04:49:31;96694.16;;;9.83;100.00
19023;BME280;35226;48.606;8.858;2023-05-19T04:51:56;96689.41;;;9.83;100.00
19023;BME280;35226;48.606;8.858;2023-05-19T04:54:26;96687.44;;;9.84;100.00
19023;BME280;35226;48.606;8.858;2023-05-19T04:56:53;96695.97;;;9.89;100.00
19023;BME280;35226;48.606;8.858;2023-05-19T04:59:21;96687.00;;;9.85;100.00
19023;BME280;35226;48.606;8.858;2023-05-19T05:01:46;96687.84;;;9.82;100.00
19023;BME280;35226;48.606;8.858;2023-05-19T05:04:14;96691.75;;;9.85;100.00
19023;BME280;35226;48.606;8.858;2023-05-19T05:06:39;96678.44;;;9.80;100.00
19023;BME280;35226;48.606;8.858;2023-05-19T05:09:06;96681.91;;;9.84;100.00
19023;BME280;35226;48.606;8.858;2023-05-19T05:11:32;96688.22;;;9.84;100.00
19023;BME280;35226;48.606;8.858;2023-05-19T05:13:59;96681.13;;;9.83;100.00
19023;BME280;35226;48.606;8.858;2023-05-19T05:16:27;96685.38;;;9.88;100.00
19023;BME280;35226;48.606;8.858;2023-05-19T05:18:55;96686.47;;;9.90;100.00
19023;BME280;35226;48.606;8.858;2023-05-19T05:21:22;96676.31;;;9.87;100.00
19023;BME280;35226;48.606;8.858;2023-05-19T05:23:50;96685.88;;;9.99;100.00
19023;BME280;35226;48.606;8.858;2023-05-19T05:26:16;96680.56;;;10.08;100.00
19023;BME280;35226;48.606;8.858;2023-05-19T05:28:45;96679.88;;;10.04;100.00
19023;BME280;35226;48.606;8.858;2023-05-19T05:31:10;96680.47;;;10.12;100.00
19023;BME280;35226;48.606;8.858;2023-05-19T05:33:37;96681.94;;;10.16;100.00
19023;BME280;35226;48.606;8.858;2023-05-19T05:36:03;96689.03;;;10.17;100.00
19023;BME280;35226;48.606;8.858;2023-05-19T05:38:29;96690.72;;;10.11;100.00
19023;BME280;35226;48.606;8.858;2023-05-19T05:40:55;96695.03;;;10.12;100.00
19023;BME280;35226;48.606;8.858;2023-05-19T05:43:21;96693.41;;;10.15;100.00
19023;BME280;35226;48.606;8.858;2023-05-19T05:45:52;96696.03;;;10.22;100.00
19023;BME280;35226;48.606;8.858;2023-05-19T05:48:18;96690.84;;;10.24;100.00
19023;BME280;35226;48.606;8.858;2023-05-19T05:50:44;96697.16;;;10.24;100.00
19023;BME280;35226;48.606;8.858;2023-05-19T05:53:18;96695.41;;;10.14;100.00
19023;BME280;35226;48.606;8.858;2023-05-19T05:55:45;96703.09;;;10.23;100.00
19023;BME280;35226;48.606;8.858;2023-05-19T05:58:11;96699.38;;;10.13;100.00
19023;BME280;35226;48.606;8.858;2023-05-19T06:00:37;96696.81;;;10.22;100.00
19023;BME280;35226;48.606;8.858;2023-05-19T06:03:03;96702.84;;;10.33;100.00
19023;BME280;35226;48.606;8.858;2023-05-19T06:05:29;96698.88;;;10.34;100.00
19023;BME280;35226;48.606;8.858;2023-05-19T06:07:55;96701.81;;;10.44;100.00
19023;BME280;35226;48.606;8.858;2023-05-19T06:10:24;96693.88;;;10.46;100.00
19023;BME280;35226;48.606;8.858;2023-05-19T06:12:51;96692.84;;;10.56;100.00
19023;BME280;35226;48.606;8.858;2023-05-19T06:15:17;96685.13;;;10.63;100.00
19023;BME280;35226;48.606;8.858;2023-05-19T06:17:54;96692.88;;;10.68;100.00
19023;BME280;35226;48.606;8.858;2023-05-19T06:20:20;96700.47;;;10.81;100.00
19023;BME280;35226;48.606;8.858;2023-05-19T06:22:45;96691.41;;;10.80;100.00
19023;BME280;35226;48.606;8.858;2023-05-19T06:25:13;96685.28;;;10.72;100.00
19023;BME280;35226;48.606;8.858;2023-05-19T06:27:38;96685.06;;;10.96;100.00
19023;BME280;35226;48.606;8.858;2023-05-19T06:30:04;96684.31;;;11.08;100.00
19023;BME280;35226;48.606;8.858;2023-05-19T06:32:37;96689.13;;;11.20;100.00
19023;BME280;35226;48.606;8.858;2023-05-19T06:35:03;96687.91;;;11.21;100.00
19023;BME280;35226;48.606;8.858;2023-05-19T06:37:29;96689.41;;;11.09;100.00
19023;BME280;35226;48.606;8.858;2023-05-19T06:39:55;96688.47;;;11.16;100.00
19023;BME280;35226;48.606;8.858;2023-05-19T06:42:21;96691.09;;;11.20;100.00
19023;BME280;35226;48.606;8.858;2023-05-19T06:44:56;96689.03;;;11.24;100.00
19023;BME280;35226;48.606;8.858;2023-05-19T06:47:22;96678.91;;;11.17;100.00
19023;BME280;35226;48.606;8.858;2023-05-19T06:49:49;96686.91;;;11.28;100.00
19023;BME280;35226;48.606;8.858;2023-05-19T06:52:15;96679.09;;;11.39;100.00
19023;BME280;35226;48.606;8.858;2023-05-19T06:54:41;96689.19;;;11.45;100.00
19023;BME280;35226;48.606;8.858;2023-05-19T06:57:08;96685.09;;;11.50;100.00
19023;BME280;35226;48.606;8.858;2023-05-19T06:59:34;96686.44;;;11.58;100.00
19023;BME280;35226;48.606;8.858;2023-05-19T07:02:03;96693.66;;;11.68;100.00
19023;BME280;35226;48.606;8.858;2023-05-19T07:04:28;96692.69;;;11.75;100.00
19023;BME280;35226;48.606;8.858;2023-05-19T07:06:55;96691.69;;;11.81;100.00
19023;BME280;35226;48.606;8.858;2023-05-19T07:09:20;96695.38;;;11.91;100.00
19023;BME280;35226;48.606;8.858;2023-05-19T07:11:46;96692.16;;;11.93;100.00
19023;BME280;35226;48.606;8.858;2023-05-19T07:14:11;96692.47;;;11.82;100.00
19023;BME280;35226;48.606;8.858;2023-05-19T07:16:37;96685.94;;;11.89;100.00
19023;BME280;35226;48.606;8.858;2023-05-19T07:19:03;96681.06;;;11.80;100.00
19023;BME280;35226;48.606;8.858;2023-05-19T07:21:29;96685.06;;;11.92;100.00
19023;BME280;35226;48.606;8.858;2023-05-19T07:23:55;96687.59;;;11.99;100.00
19023;BME280;35226;48.606;8.858;2023-05-19T07:26:20;96690.28;;;12.02;100.00
19023;BME280;35226;48.606;8.858;2023-05-19T07:28:46;96685.72;;;12.08;100.00
19023;BME280;35226;48.606;8.858;2023-05-19T07:31:12;96680.84;;;12.12;100.00
19023;BME280;35226;48.606;8.858;2023-05-19T07:33:37;96684.41;;;12.13;100.00
19023;BME280;35226;48.606;8.858;2023-05-19T07:36:03;96685.03;;;12.17;100.00
19023;BME280;35226;48.606;8.858;2023-05-19T07:38:29;96679.16;;;12.28;100.00
19023;BME280;35226;48.606;8.858;2023-05-19T07:40:55;96671.19;;;12.30;100.00
19023;BME280;35226;48.606;8.858;2023-05-19T07:43:21;96677.59;;;12.39;100.00
19023;BME280;35226;48.606;8.858;2023-05-19T07:45:46;96675.50;;;12.43;100.00
19023;BME280;35226;48.606;8.858;2023-05-19T07:48:12;96677.94;;;12.41;100.00
19023;BME280;35226;48.606;8.858;2023-05-19T07:50:37;96680.72;;;12.41;100.00
19023;BME280;35226;48.606;8.858;2023-05-19T07:53:03;96675.72;;;12.36;100.00
19023;BME280;35226;48.606;8.858;2023-05-19T07:55:28;96679.50;;;12.30;100.00
19023;BME280;35226;48.606;8.858;2023-05-19T07:57:54;96668.31;;;12.33;100.00
19023;BME280;35226;48.606;8.858;2023-05-19T08:00:20;96675.63;;;12.27;100.00
19023;BME280;35226;48.606;8.858;2023-05-19T08:02:46;96662.53;;;12.28;100.00
19023;BME280;35226;48.606;8.858;2023-05-19T08:05:11;96664.28;;;12.34;100.00
19023;BME280;35226;48.606;8.858;2023-05-19T08:07:37;96664.00;;;12.32;100.00
19023;BME280;35226;48.606;8.858;2023-05-19T08:10:02;96666.63;;;12.36;100.00
19023;BME280;35226;48.606;8.858;2023-05-19T08:12:28;96666.84;;;12.41;100.00
19023;BME280;35226;48.606;8.858;2023-05-19T08:14:53;96668.84;;;12.41;100.00
19023;BME280;35226;48.606;8.858;2023-05-19T08:17:19;96662.19;;;12.38;100.00
19023;BME280;35226;48.606;8.858;2023-05-19T08:19:44;96663.94;;;12.45;100.00
19023;BME280;35226;48.606;8.858;2023-05-19T08:22:10;96663.50;;;12.46;100.00
19023;BME280;35226;48.606;8.858;2023-05-19T08:24:35;96665.06;;;12.47;100.00
19023;BME280;35226;48.606;8.858;2023-05-19T08:27:01;96652.31;;;12.50;100.00
19023;BME280;35226;48.606;8.858;2023-05-19T08:29:26;96662.25;;;12.60;100.00
19023;BME280;35226;48.606;8.858;2023-05-19T08:31:52;96653.69;;;12.67;100.00
19023;BME280;35226;48.606;8.858;2023-05-19T08:47:49;96645.22;;;13.05;100.00
19023;BME280;35226;48.606;8.858;2023-05-19T08:50:20;96640.47;;;13.27;100.00
19023;BME280;35226;48.606;8.858;2023-05-19T08:53:07;96637.75;;;13.37;100.00
19023;BME280;35226;48.606;8.858;2023-05-19T08:58:37;96651.00;;;13.63;100.00
19023;BME280;35226;48.606;8.858;2023-05-19T09:01:05;96639.19;;;13.81;100.00
19023;BME280;35226;48.606;8.858;2023-05-19T09:03:34;96636.19;;;13.57;100.00
19023;BME280;35226;48.606;8.858;2023-05-19T09:06:06;96632.75;;;13.53;100.00
19023;BME280;35226;48.606;8.858;2023-05-19T09:08:37;96638.81;;;13.61;100.00
19023;BME280;35226;48.606;8.858;2023-05-19T09:11:02;96637.84;;;13.55;100.00
19023;BME280;35226;48.606;8.858;2023-05-19T09:13:28;96642.06;;;13.59;100.00
19023;BME280;35226;48.606;8.858;2023-05-19T09:15:57;96647.44;;;13.63;100.00
19023;BME280;35226;48.606;8.858;2023-05-19T09:18:24;96646.06;;;13.58;100.00
19023;BME280;35226;48.606;8.858;2023-05-19T09:21:00;96642.66;;;13.63;100.00
19023;BME280;35226;48.606;8.858;2023-05-19T09:23:28;96639.78;;;13.67;100.00
19023;BME280;35226;48.606;8.858;2023-05-19T09:25:55;96638.25;;;13.75;100.00
19023;BME280;35226;48.606;8.858;2023-05-19T09:28:29;96635.59;;;13.71;100.00
19023;BME280;35226;48.606;8.858;2023-05-19T09:33:31;96640.06;;;13.60;100.00
19023;BME280;35226;48.606;8.858;2023-05-19T09:35:56;96640.22;;;13.65;100.00
19023;BME280;35226;48.606;8.858;2023-05-19T09:38:23;96636.53;;;13.68;100.00
19023;BME280;35226;48.606;8.858;2023-05-19T09:40:49;96629.53;;;13.55;100.00
19023;BME280;35226;48.606;8.858;2023-05-19T09:43:15;96639.56;;;13.61;100.00
19023;BME280;35226;48.606;8.858;2023-05-19T09:45:41;96635.28;;;13.60;100.00
19023;BME280;35226;48.606;8.858;2023-05-19T09:48:06;96634.66;;;13.65;100.00
19023;BME280;35226;48.606;8.858;2023-05-19T09:50:32;96630.81;;;13.72;100.00
19023;BME280;35226;48.606;8.858;2023-05-19T09:52:58;96634.22;;;13.67;100.00
19023;BME280;35226;48.606;8.858;2023-05-19T09:55:25;96630.69;;;13.76;100.00
19023;BME280;35226;48.606;8.858;2023-05-19T09:57:54;96634.13;;;13.80;100.00
19023;BME280;35226;48.606;8.858;2023-05-19T10:00:21;96630.56;;;13.79;100.00
19023;BME280;35226;48.606;8.858;2023-05-19T10:02:47;96631.06;;;13.87;100.00
19023;BME280;35226;48.606;8.858;2023-05-19T10:05:18;96631.34;;;13.80;100.00
19023;BME280;35226;48.606;8.858;2023-05-19T10:07:45;96633.09;;;13.95;100.00
19023;BME280;35226;48.606;8.858;2023-05-19T10:10:13;96635.03;;;13.77;100.00
19023;BME280;35226;48.606;8.858;2023-05-19T10:12:40;96639.41;;;13.87;100.00
19023;BME280;35226;48.606;8.858;2023-05-19T10:15:13;96631.16;;;13.74;100.00
19023;BME280;35226;48.606;8.858;2023-05-19T10:17:42;96630.06;;;13.71;100.00
19023;BME280;35226;48.606;8.858;2023-05-19T10:20:10;96623.56;;;13.65;100.00
19023;BME280;35226;48.606;8.858;2023-05-19T10:22:40;96626.97;;;13.69;100.00
19023;BME280;35226;48.606;8.858;2023-05-19T10:25:07;96623.88;;;13.67;100.00
19023;BME280;35226;48.606;8.858;2023-05-19T10:27:48;96626.50;;;13.71;100.00
19023;BME280;35226;48.606;8.858;2023-05-19T10:30:18;96623.09;;;13.67;100.00
19023;BME280;35226;48.606;8.858;2023-05-19T10:32:49;96624.81;;;13.74;100.00
19023;BME280;35226;48.606;8.858;2023-05-19T10:44:39;96630.06;;;13.71;100.00
19023;BME280;35226;48.606;8.858;2023-05-19T10:47:07;96621.09;;;13.67;100.00
19023;BME280;35226;48.606;8.858;2023-05-19T10:49:36;96631.94;;;13.75;100.00
19023;BME280;35226;48.606;8.858;2023-05-19T10:52:02;96623.88;;;13.67;100.00
19023;BME280;35226;48.606;8.858;2023-05-19T10:54:39;96632.44;;;13.51;100.00
19023;BME280;35226;48.606;8.858;2023-05-19T10:57:16;96629.19;;;13.53;100.00
19023;BME280;35226;48.606;8.858;2023-05-19T10:59:44;96635.84;;;13.55;100.00
19023;BME280;35226;48.606;8.858;2023-05-19T11:05:14;96637.94;;;13.42;100.00
19023;BME280;35226;48.606;8.858;2023-05-19T11:08:04;96636.25;;;13.45;100.00
19023;BME280;35226;48.606;8.858;2023-05-19T11:10:32;96632.84;;;13.41;100.00
19023;BME280;35226;48.606;8.858;2023-05-19T11:12:58;96628.00;;;13.32;100.00
19023;BME280;35226;48.606;8.858;2023-05-19T11:15:27;96629.88;;;13.35;100.00
19023;BME280;35226;48.606;8.858;2023-05-19T11:17:53;96635.16;;;13.42;100.00
19023;BME280;35226;48.606;8.858;2023-05-19T11:20:21;96633.75;;;13.38;100.00
19023;BME280;35226;48.606;8.858;2023-05-19T11:23:15;96638.47;;;13.28;100.00
19023;BME280;35226;48.606;8.858;2023-05-19T11:25:50;96635.56;;;13.31;100.00
19023;BME280;35226;48.606;8.858;2023-05-19T11:28:19;96623.81;;;13.27;100.00
19023;BME280;35226;48.606;8.858;2023-05-19T11:30:48;96630.97;;;13.38;100.00
19023;BME280;35226;48.606;8.858;2023-05-19T11:33:14;96625.75;;;13.40;100.00
19023;BME280;35226;48.606;8.858;2023-05-19T11:35:45;96626.19;;;13.38;100.00
19023;BME280;35226;48.606;8.858;2023-05-19T11:38:11;96628.38;;;13.43;100.00
19023;BME280;35226;48.606;8.858;2023-05-19T11:40:39;96624.56;;;13.50;100.00
19023;BME280;35226;48.606;8.858;2023-05-19T11:43:06;96624.13;;;13.51;100.00
19023;BME280;35226;48.606;8.858;2023-05-19T11:45:31;96619.38;;;13.61;100.00
19023;BME280;35226;48.606;8.858;2023-05-19T11:47:58;96616.13;;;13.62;100.00
19023;BME280;35226;48.606;8.858;2023-05-19T11:50:24;96631.00;;;13.68;100.00
19023;BME280;35226;48.606;8.858;2023-05-19T11:52:51;96631.81;;;13.78;100.00
19023;BME280;35226;48.606;8.858;2023-05-19T11:55:18;96623.72;;;13.71;100.00
19023;BME280;35226;48.606;8.858;2023-05-19T12:00:23;96626.78;;;13.64;100.00
19023;BME280;35226;48.606;8.858;2023-05-19T12:02:49;96618.34;;;13.67;100.00
19023;BME280;35226;48.606;8.858;2023-05-19T12:05:23;96622.91;;;13.61;100.00
19023;BME280;35226;48.606;8.858;2023-05-19T12:07:49;96619.69;;;13.63;100.00
19023;BME280;35226;48.606;8.858;2023-05-19T12:12:49;96622.38;;;13.76;100.00
19023;BME280;35226;48.606;8.858;2023-05-19T12:15:24;96623.16;;;13.76;100.00
19023;BME280;35226;48.606;8.858;2023-05-19T12:17:56;96623.47;;;13.78;100.00
19023;BME280;35226;48.606;8.858;2023-05-19T12:20:26;96632.25;;;13.77;100.00
19023;BME280;35226;48.606;8.858;2023-05-19T12:22:53;96635.38;;;13.88;100.00
19023;BME280;35226;48.606;8.858;2023-05-19T12:25:19;96631.38;;;13.89;100.00
19023;BME280;35226;48.606;8.858;2023-05-19T12:27:45;96628.00;;;13.94;100.00
19023;BME280;35226;48.606;8.858;2023-05-19T12:30:13;96632.44;;;13.91;100.00
19023;BME280;35226;48.606;8.858;2023-05-19T12:32:38;96628.00;;;13.94;100.00
19023;BME280;35226;48.606;8.858;2023-05-19T12:35:04;96631.88;;;13.96;100.00
19023;BME280;35226;48.606;8.858;2023-05-19T12:37:31;96637.75;;;13.98;100.00
19023;BME280;35226;48.606;8.858;2023-05-19T12:40:00;96639.75;;;13.98;100.00
19023;BME280;35226;48.606;8.858;2023-05-19T12:42:28;96629.19;;;13.84;100.00
19023;BME280;35226;48.606;8.858;2023-05-19T12:44:56;96635.38;;;13.88;100.00
19023;BME280;35226;48.606;8.858;2023-05-19T12:47:21;96635.75;;;13.99;100.00
19023;BME280;35226;48.606;8.858;2023-05-19T12:52:20;96630.97;;;13.99;100.00
19023;BME280;35226;48.606;8.858;2023-05-19T12:54:56;96634.31;;;13.94;100.00
19023;BME280;35226;48.606;8.858;2023-05-19T12:57:22;96639.56;;;13.92;100.00
19023;BME280;35226;48.606;8.858;2023-05-19T12:59:48;96649.25;;;13.79;100.00
19023;BME280;35226;48.606;8.858;2023-05-19T13:02:13;96647.72;;;13.87;100.00
19023;BME280;35226;48.606;8.858;2023-05-19T13:04:40;96640.75;;;13.82;100.00
19023;BME280;35226;48.606;8.858;2023-05-19T13:07:05;96635.97;;;13.83;100.00
19023;BME280;35226;48.606;8.858;2023-05-19T13:09:31;96629.19;;;13.84;100.00
19023;BME280;35226;48.606;8.858;2023-05-19T13:11:59;96633.34;;;13.79;100.00
19023;BME280;35226;48.606;8.858;2023-05-19T13:14:25;96620.53;;;13.82;100.00
19023;BME280;35226;48.606;8.858;2023-05-19T13:16:50;96623.91;;;13.77;100.00
19023;BME280;35226;48.606;8.858;2023-05-19T13:19:17;96622.50;;;13.72;100.00
19023;BME280;35226;48.606;8.858;2023-05-19T13:21:43;96629.78;;;13.79;100.00
19023;BME280;35226;48.606;8.858;2023-05-19T13:24:12;96632.38;;;13.73;100.00
19023;BME280;35226;48.606;8.858;2023-05-19T13:26:37;96631.03;;;13.78;100.00
19023;BME280;35226;48.606;8.858;2023-05-19T13:29:03;96621.59;;;13.75;100.00
19023;BME280;35226;48.606;8.858;2023-05-19T13:31:30;96621.59;;;13.75;100.00
19023;BME280;35226;48.606;8.858;2023-05-19T13:33:55;96621.59;;;13.75;100.00
19023;BME280;35226;48.606;8.858;2023-05-19T13:36:21;96623.91;;;13.77;100.00
19023;BME280;35226;48.606;8.858;2023-05-19T13:38:46;96620.22;;;13.70;100.00
19023;BME280;35226;48.606;8.858;2023-05-19T13:41:12;96616.78;;;13.66;100.00
19023;BME280;35226;48.606;8.858;2023-05-19T13:43:38;96611.22;;;13.66;100.00
19023;BME280;35226;48.606;8.858;2023-05-19T13:46:04;96608.91;;;13.65;100.00
19023;BME280;35226;48.606;8.858;2023-05-19T13:48:30;96605.84;;;13.72;100.00
19023;BME280;35226;48.606;8.858;2023-05-19T13:50:55;96613.56;;;13.68;100.00